Time;durP1;ratioP1;P1;durP2;ratioP2;P2;SDS_P1;SDS_P2;PMS_P1;PMS_P2;Temp;Humidity;BMP_temperature;BMP_pressure;BME280_temperature;BME280_humidity;BME280_pressure;Samples;Min_cycle;Max_cycle;Signal;HPM_P1;HPM_P2
2022/11/06 19:06:27;;;;;;;1999.90;999.90;;;9.00;99.90;;;;;;5197455;27;20396;-78
2022/11/06 19:08:53;;;;;;;1999.90;999.90;;;8.90;99.90;;;;;;5201145;27;20034;-79
2022/11/06 19:11:19;;;;;;;1999.90;999.90;;;8.90;99.90;;;;;;5197843;27;20109;-79
2022/11/06 19:13:44;;;;;;;1999.90;999.90;;;8.90;99.90;;;;;;5198361;27;20069;-81
2022/11/06 19:16:11;;;;;;;1999.90;999.90;;;8.90;99.90;;;;;;5200940;27;20374;-80
2022/11/06 19:18:38;;;;;;;1999.90;999.90;;;8.90;99.90;;;;;;5199752;27;20763;-80
2022/11/06 19:21:07;;;;;;;1999.90;999.90;;;8.90;99.90;;;;;;5199790;27;20090;-80
2022/11/06 19:23:33;;;;;;;1999.90;999.90;;;9.00;99.90;;;;;;5198616;27;20060;-80
2022/11/06 19:25:59;;;;;;;1999.90;999.90;;;9.00;99.90;;;;;;5197316;27;20034;-80
2022/11/06 19:28:24;;;;;;;1999.90;999.90;;;9.00;99.90;;;;;;5198682;27;20082;-82
2022/11/06 19:30:50;;;;;;;1999.90;999.90;;;9.00;99.90;;;;;;5200777;27;20039;-81
2022/11/06 19:33:15;;;;;;;1999.90;999.90;;;9.00;99.90;;;;;;5200822;27;20027;-77
2022/11/06 19:35:41;;;;;;;1999.90;999.90;;;9.00;99.90;;;;;;5200388;27;20026;-78
2022/11/06 19:38:06;;;;;;;1999.90;999.90;;;9.10;99.90;;;;;;5199358;27;20381;-82
2022/11/06 19:40:32;;;;;;;1999.90;999.90;;;8.90;99.90;;;;;;5197063;27;20035;-81
2022/11/06 19:42:58;;;;;;;1999.90;999.90;;;9.00;99.90;;;;;;5196701;27;20476;-82
2022/11/06 19:45:25;;;;;;;1999.90;999.90;;;9.00;99.90;;;;;;5198091;27;20034;-81
2022/11/06 19:47:50;;;;;;;1999.90;999.90;;;9.00;99.90;;;;;;5198973;27;20018;-81
2022/11/06 19:50:16;;;;;;;1999.90;999.90;;;9.00;99.90;;;;;;5199305;27;20031;-81
2022/11/06 19:52:42;;;;;;;1999.90;999.90;;;9.00;99.90;;;;;;5198914;27;20046;-81
2022/11/06 19:55:08;;;;;;;1999.90;999.90;;;9.00;99.90;;;;;;5196595;27;20039;-81
2022/11/06 19:57:33;;;;;;;1999.90;999.90;;;9.00;99.90;;;;;;5200917;27;20052;-82
2022/11/06 19:59:59;;;;;;;1999.90;999.90;;;8.90;99.90;;;;;;5201099;27;20066;-82
2022/11/06 20:02:25;;;;;;;1999.90;999.90;;;8.90;99.90;;;;;;5197753;27;20030;-82
2022/11/06 20:04:50;;;;;;;1999.90;999.90;;;8.80;99.90;;;;;;5193783;27;20064;-83
2022/11/06 20:07:16;;;;;;;1999.90;999.90;;;8.80;99.90;;;;;;5195753;27;20050;-81
2022/11/06 20:09:41;;;;;;;1999.90;999.90;;;8.80;99.90;;;;;;5197695;27;20479;-82
2022/11/06 20:12:07;;;;;;;1999.90;999.90;;;8.80;99.90;;;;;;5193462;27;20139;-82
2022/11/06 20:14:33;;;;;;;1999.90;999.90;;;8.70;99.90;;;;;;5195049;27;20026;-81
2022/11/06 20:16:59;;;;;;;1999.90;999.90;;;8.70;99.90;;;;;;5184371;27;20041;-81
2022/11/06 20:19:24;;;;;;;1999.90;999.90;;;8.70;99.90;;;;;;5181343;27;20027;-80
2022/11/06 20:21:50;;;;;;;1999.90;999.90;;;8.60;99.90;;;;;;5181166;27;20037;-82
2022/11/06 20:24:16;;;;;;;1999.90;999.90;;;8.60;99.90;;;;;;5181528;27;20027;-82
2022/11/06 20:26:41;;;;;;;1999.90;999.90;;;8.50;99.90;;;;;;5181565;27;20391;-82
2022/11/06 20:29:07;;;;;;;1999.90;999.90;;;8.50;99.90;;;;;;5181622;27;20026;-81
2022/11/06 20:31:32;;;;;;;1999.90;999.90;;;8.50;99.90;;;;;;5181289;27;20037;-81
2022/11/06 20:33:58;;;;;;;1999.90;999.90;;;8.50;99.90;;;;;;5180275;27;20519;-81
2022/11/06 20:36:29;;;;;;;1999.90;999.90;;;8.50;99.90;;;;;;5179943;27;20026;-81
2022/11/06 20:38:57;;;;;;;1999.90;999.90;;;8.40;99.90;;;;;;5181181;27;20488;-81
2022/11/06 20:41:23;;;;;;;1999.90;999.90;;;8.50;99.90;;;;;;5181516;27;20114;-82
2022/11/06 20:43:50;;;;;;;1999.90;999.90;;;8.50;99.90;;;;;;5182651;27;20513;-82
2022/11/06 20:46:17;;;;;;;1999.90;999.90;;;8.60;99.90;;;;;;5182638;27;20556;-81
2022/11/06 20:48:44;;;;;;;1999.90;999.90;;;8.60;99.90;;;;;;5182427;27;20177;-82
2022/11/06 20:51:12;;;;;;;1999.90;999.90;;;8.70;99.90;;;;;;5182808;27;20091;-81
2022/11/06 20:53:38;;;;;;;1999.90;999.90;;;8.70;99.90;;;;;;5183987;27;20027;-82
2022/11/06 20:56:06;;;;;;;1999.90;999.90;;;8.80;99.90;;;;;;5183534;27;20388;-81
2022/11/06 20:58:33;;;;;;;1999.90;999.90;;;8.80;99.90;;;;;;5184157;27;20085;-81
2022/11/06 21:01:10;;;;;;;1999.90;999.90;;;8.80;99.90;;;;;;5183342;27;20039;-76
2022/11/06 21:03:37;;;;;;;1999.90;999.90;;;8.90;99.90;;;;;;5183374;27;20019;-80
2022/11/06 21:06:03;;;;;;;1999.90;999.90;;;8.80;99.90;;;;;;5183000;27;20067;-80
2022/11/06 21:08:31;;;;;;;1999.90;999.90;;;8.80;99.90;;;;;;5181350;27;20159;-80
2022/11/06 21:11:10;;;;;;;1999.90;999.90;;;8.90;99.90;;;;;;5183125;27;20086;-80
2022/11/06 21:13:39;;;;;;;1999.90;999.90;;;8.90;99.90;;;;;;5183654;27;20037;-80
2022/11/06 21:16:13;;;;;;;1999.90;999.90;;;8.80;99.90;;;;;;5184097;27;20033;-80
2022/11/06 21:18:39;;;;;;;1999.90;999.90;;;8.80;99.90;;;;;;5183255;27;20045;-80
2022/11/06 21:21:07;;;;;;;1999.90;999.90;;;8.80;99.90;;;;;;5182883;27;20458;-80
2022/11/06 21:23:33;;;;;;;1999.90;999.90;;;8.80;99.90;;;;;;5180431;27;20026;-80
2022/11/06 21:26:11;;;;;;;1999.90;999.90;;;8.70;99.90;;;;;;5181501;27;20080;-80
2022/11/06 21:28:37;;;;;;;1999.90;999.90;;;8.60;99.90;;;;;;5179923;27;20448;-80
2022/11/06 21:31:07;;;;;;;1999.90;999.90;;;8.50;99.90;;;;;;5181950;27;20546;-80
2022/11/06 21:33:32;;;;;;;1999.90;999.90;;;8.50;99.90;;;;;;5182424;27;20033;-80
2022/11/06 21:36:13;;;;;;;1999.90;999.90;;;8.40;99.90;;;;;;5181594;27;20035;-80
2022/11/06 21:38:39;;;;;;;1999.90;999.90;;;8.50;99.90;;;;;;5182317;27;20094;-80
2022/11/06 21:41:06;;;;;;;1999.90;999.90;;;8.50;99.90;;;;;;5180125;27;20039;-80
2022/11/06 21:43:33;;;;;;;1999.90;999.90;;;8.50;99.90;;;;;;5181896;27;20053;-80
2022/11/06 21:46:03;;;;;;;1999.90;999.90;;;8.60;99.90;;;;;;5182132;27;20087;-80
2022/11/06 21:48:29;;;;;;;1999.90;999.90;;;8.70;99.90;;;;;;5182831;27;20798;-81
2022/11/06 21:50:55;;;;;;;1999.90;999.90;;;8.80;99.90;;;;;;5181694;27;20039;-80
2022/11/06 21:56:07;;;;;;;1999.90;999.90;;;8.90;99.90;;;;;;5183853;27;20026;-80
2022/11/06 21:58:33;;;;;;;1999.90;999.90;;;9.10;99.90;;;;;;5184642;27;20038;-81
2022/11/06 22:01:02;;;;;;;1999.90;999.90;;;9.10;99.90;;;;;;5183764;27;20058;-80
2022/11/06 22:03:27;;;;;;;1999.90;999.90;;;9.20;99.90;;;;;;5179983;27;20072;-80
2022/11/06 22:05:53;;;;;;;1999.90;999.90;;;9.20;99.90;;;;;;5177752;27;20043;-81
2022/11/06 22:08:21;;;;;;;1999.90;999.90;;;9.20;99.90;;;;;;5179114;27;20062;-81
2022/11/06 22:10:47;;;;;;;1999.90;999.90;;;9.30;99.90;;;;;;5177550;27;20038;-81
2022/11/06 22:13:12;;;;;;;1999.90;999.90;;;9.30;99.90;;;;;;5178171;27;20396;-80
2022/11/06 22:15:38;;;;;;;1999.90;999.90;;;9.30;99.90;;;;;;5179521;27;20030;-81
2022/11/06 22:18:03;;;;;;;1999.90;999.90;;;9.40;99.90;;;;;;5176492;27;20510;-81
2022/11/06 22:20:29;;;;;;;1999.90;999.90;;;9.30;99.90;;;;;;5179601;27;20043;-80
2022/11/06 22:22:54;;;;;;;1999.90;999.90;;;9.40;99.90;;;;;;5181401;27;20084;-80
2022/11/06 22:25:20;;;;;;;1999.90;999.90;;;9.30;99.90;;;;;;5180871;27;20050;-80
2022/11/06 22:27:45;;;;;;;1999.90;999.90;;;9.30;99.90;;;;;;5181314;27;20118;-80
2022/11/06 22:30:11;;;;;;;1999.90;999.90;;;9.30;99.90;;;;;;5179258;27;20031;-80
2022/11/06 22:32:37;;;;;;;1999.90;999.90;;;9.20;99.90;;;;;;5181324;27;20084;-80
2022/11/06 22:35:03;;;;;;;1999.90;999.90;;;9.20;99.90;;;;;;5181950;27;20109;-80
2022/11/06 22:37:28;;;;;;;1999.90;999.90;;;9.20;99.90;;;;;;5182813;27;20158;-80
2022/11/06 22:39:54;;;;;;;1999.90;999.90;;;9.30;99.90;;;;;;5181974;27;20437;-80
2022/11/06 22:42:19;;;;;;;1999.90;999.90;;;9.30;99.90;;;;;;5182612;27;20037;-80
2022/11/06 22:44:45;;;;;;;1999.90;999.90;;;9.30;99.90;;;;;;5182939;27;20039;-80
2022/11/06 22:47:10;;;;;;;1999.90;999.90;;;9.30;99.90;;;;;;5180744;27;20031;-80
2022/11/06 22:49:36;;;;;;;1999.90;999.90;;;9.30;99.90;;;;;;5181741;27;20516;-80
2022/11/06 22:52:01;;;;;;;1999.90;999.90;;;9.30;99.90;;;;;;5182223;27;20031;-80
2022/11/06 22:54:27;;;;;;;1999.90;999.90;;;9.40;99.90;;;;;;5183011;27;20110;-80
2022/11/06 22:56:53;;;;;;;1999.90;999.90;;;9.40;99.90;;;;;;5182841;27;20076;-80
2022/11/06 22:59:20;;;;;;;1999.90;999.90;;;9.50;99.90;;;;;;5181230;27;20038;-80
